createdAt,value
2019-03-22T00:02:24.760Z,85.78
2019-03-22T00:04:51.834Z,85.54
2019-03-22T00:07:18.897Z,86.33
2019-03-22T00:09:45.934Z,85.69
2019-03-22T00:12:13.012Z,86.21
2019-03-22T00:14:40.066Z,86.38
2019-03-22T00:17:07.974Z,86.09
2019-03-22T00:19:35.061Z,85.72
2019-03-22T00:22:04.309Z,86.30
2019-03-22T00:24:31.377Z,86.61
2019-03-22T00:26:58.418Z,86.07
2019-03-22T00:29:25.509Z,86.55
2019-03-22T00:31:52.906Z,86.65
2019-03-22T00:34:19.947Z,86.13
2019-03-22T00:36:47.343Z,86.01
2019-03-22T00:39:15.614Z,85.48
2019-03-22T00:41:42.678Z,84.90
2019-03-22T00:44:09.755Z,84.63
2019-03-22T00:46:36.847Z,85.07
2019-03-22T00:49:03.893Z,85.31
2019-03-22T00:51:30.897Z,85.53
2019-03-22T00:53:59.555Z,85.49
2019-03-22T00:56:26.573Z,85.34
2019-03-22T00:58:53.766Z,84.59
2019-03-22T01:01:20.904Z,84.82
2019-03-22T01:03:48.003Z,85.25
2019-03-22T01:06:15.365Z,85.54
2019-03-22T01:08:42.825Z,85.99
2019-03-22T01:11:10.007Z,86.01
2019-03-22T01:13:37.849Z,85.56
2019-03-22T01:16:04.988Z,85.75
2019-03-22T01:18:32.767Z,85.79
2019-03-22T01:20:59.820Z,85.98
2019-03-22T01:23:32.046Z,85.77
2019-03-22T01:25:59.264Z,86.19
2019-03-22T01:28:28.619Z,86.05
2019-03-22T01:30:55.681Z,86.17
2019-03-22T01:33:22.752Z,86.65
2019-03-22T01:35:50.148Z,86.86
2019-03-22T01:38:17.354Z,87.54
2019-03-22T01:40:47.564Z,88.37
2019-03-22T01:43:14.681Z,87.73
2019-03-22T01:45:41.814Z,87.78
2019-03-22T01:48:11.266Z,87.83
2019-03-22T01:50:38.354Z,87.93
2019-03-22T01:53:05.490Z,87.46
2019-03-22T01:55:35.882Z,87.52
2019-03-22T01:58:03.192Z,87.10
2019-03-22T02:00:30.378Z,87.59
2019-03-22T02:02:57.460Z,87.65
2019-03-22T02:05:25.133Z,88.19
2019-03-22T02:07:52.211Z,88.82
2019-03-22T02:10:19.627Z,89.66
2019-03-22T02:12:47.685Z,89.69
2019-03-22T02:15:15.725Z,89.61
2019-03-22T02:17:43.144Z,88.96
2019-03-22T02:20:10.614Z,88.61
2019-03-22T02:22:37.674Z,88.81
2019-03-22T02:25:07.987Z,87.50
2019-03-22T02:27:35.250Z,87.41
2019-03-22T02:30:02.557Z,87.64
2019-03-22T02:32:29.586Z,88.60
2019-03-22T02:34:56.718Z,90.23
2019-03-22T02:37:24.336Z,90.36
2019-03-22T02:39:51.673Z,89.48
2019-03-22T02:42:18.682Z,89.14
2019-03-22T02:44:45.939Z,88.68
2019-03-22T02:47:13.857Z,88.39
2019-03-22T02:49:41.068Z,89.23
2019-03-22T02:52:08.108Z,89.63
2019-03-22T02:54:35.137Z,89.38
2019-03-22T02:57:02.314Z,88.73
2019-03-22T02:59:29.356Z,87.63
2019-03-22T03:01:56.648Z,87.38
2019-03-22T03:04:23.685Z,87.75
2019-03-22T03:06:51.294Z,88.11
2019-03-22T03:09:18.328Z,88.52
2019-03-22T03:11:46.808Z,88.61
2019-03-22T03:14:14.362Z,88.69
2019-03-22T03:16:41.847Z,89.13
2019-03-22T03:19:08.876Z,89.00
2019-03-22T03:21:35.939Z,88.99
2019-03-22T03:24:06.155Z,88.96
2019-03-22T03:26:33.695Z,89.68
2019-03-22T03:29:00.725Z,90.07
2019-03-22T03:31:28.300Z,90.32
2019-03-22T03:33:55.844Z,90.28
2019-03-22T03:36:22.940Z,90.08
2019-03-22T03:38:49.964Z,90.05
2019-03-22T03:41:17.142Z,90.07
2019-03-22T03:43:44.364Z,90.17
2019-03-22T03:46:11.669Z,89.98
2019-03-22T03:48:39.842Z,89.57
2019-03-22T03:51:06.865Z,90.04
2019-03-22T03:53:33.891Z,90.32
2019-03-22T03:56:03.505Z,90.91
2019-03-22T03:58:30.502Z,90.61
2019-03-22T04:00:57.510Z,90.18
2019-03-22T04:03:24.920Z,89.78
2019-03-22T04:05:52.121Z,89.98
2019-03-22T04:08:19.153Z,89.76
2019-03-22T04:10:46.194Z,89.72
2019-03-22T04:13:15.576Z,89.84
2019-03-22T04:15:43.015Z,89.88
2019-03-22T04:18:10.032Z,89.44
2019-03-22T04:20:37.445Z,89.00
2019-03-22T04:23:04.551Z,89.71
2019-03-22T04:25:31.637Z,90.10
2019-03-22T04:27:58.648Z,89.71
2019-03-22T04:30:29.203Z,89.87
2019-03-22T04:32:56.253Z,90.13
2019-03-22T04:35:23.261Z,90.65
2019-03-22T04:37:52.810Z,90.89
2019-03-22T04:40:27.734Z,91.17
2019-03-22T04:42:54.920Z,91.51
2019-03-22T04:45:22.089Z,91.95
2019-03-22T04:47:53.784Z,92.56
2019-03-22T04:50:21.866Z,93.18
2019-03-22T04:52:49.316Z,92.80
2019-03-22T04:55:16.983Z,92.65
2019-03-22T04:57:44.490Z,93.16
2019-03-22T05:00:12.842Z,94.12
2019-03-22T05:02:41.188Z,94.70
2019-03-22T05:05:09.002Z,94.70
2019-03-22T05:07:36.217Z,94.45
2019-03-22T05:10:05.587Z,94.33
2019-03-22T05:12:33.047Z,94.11
2019-03-22T05:15:00.790Z,94.21
2019-03-22T05:17:29.288Z,93.69
2019-03-22T05:19:57.165Z,93.89
2019-03-22T05:22:25.214Z,93.96
2019-03-22T05:24:53.290Z,94.16
2019-03-22T05:27:20.549Z,94.20
2019-03-22T05:29:47.696Z,93.72
2019-03-22T05:32:16.348Z,93.69
2019-03-22T05:34:43.395Z,93.63
2019-03-22T05:37:11.427Z,94.24
2019-03-22T05:39:38.587Z,94.39
2019-03-22T05:42:05.950Z,93.98
2019-03-22T05:44:33.142Z,94.06
2019-03-22T05:47:00.214Z,94.36
2019-03-22T05:49:27.333Z,94.13
2019-03-22T05:51:54.422Z,93.72
2019-03-22T05:54:21.420Z,93.20
2019-03-22T05:56:54.914Z,92.95
2019-03-22T05:59:21.942Z,92.73
2019-03-22T06:01:49.023Z,92.38
2019-03-22T06:04:16.137Z,91.98
2019-03-22T06:06:43.152Z,91.74
2019-03-22T06:09:10.201Z,91.36
2019-03-22T06:11:37.262Z,91.57
2019-03-22T06:14:04.517Z,91.90
2019-03-22T06:16:31.894Z,92.33
2019-03-22T06:18:58.925Z,93.01
2019-03-22T06:21:26.234Z,93.33
2019-03-22T06:23:53.258Z,93.28
2019-03-22T06:26:20.337Z,93.02
2019-03-22T06:28:47.345Z,92.65
2019-03-22T06:31:14.363Z,92.11
2019-03-22T06:33:42.504Z,91.54
2019-03-22T06:36:09.590Z,91.12
2019-03-22T06:38:36.679Z,90.40
2019-03-22T06:41:04.445Z,89.65
2019-03-22T06:43:31.502Z,88.26
2019-03-22T06:45:58.551Z,86.62
2019-03-22T06:48:25.624Z,85.22
2019-03-22T06:50:52.637Z,84.03
2019-03-22T06:53:19.662Z,82.87
2019-03-22T06:55:46.732Z,82.13
2019-03-22T06:58:13.802Z,81.67
2019-03-22T07:00:40.826Z,80.77
2019-03-22T07:03:07.867Z,79.68
2019-03-22T07:05:34.932Z,78.16
2019-03-22T07:08:02.893Z,75.66
2019-03-22T07:10:29.968Z,74.31
2019-03-22T07:12:56.987Z,74.35
2019-03-22T07:15:24.014Z,73.46
2019-03-22T07:17:51.107Z,71.86
2019-03-22T07:20:18.150Z,71.30
2019-03-22T07:22:45.193Z,70.85
2019-03-22T07:25:12.388Z,70.64
2019-03-22T07:27:39.415Z,68.17
2019-03-22T07:30:17.891Z,66.67
2019-03-22T07:32:35.815Z,65.85
2019-03-22T07:35:03.348Z,65.94
2019-03-22T07:37:31.217Z,66.10
2019-03-22T07:39:58.473Z,65.78
2019-03-22T07:42:25.572Z,65.54
2019-03-22T07:44:52.622Z,65.29
2019-03-22T07:47:19.925Z,64.85
2019-03-22T07:49:48.204Z,63.39
2019-03-22T07:52:16.331Z,61.88
2019-03-22T07:54:43.741Z,61.24
2019-03-22T07:57:12.041Z,60.00
2019-03-22T07:59:40.103Z,59.63
2019-03-22T08:02:07.820Z,58.26
2019-03-22T08:04:45.286Z,57.05
2019-03-22T08:07:20.376Z,57.21
2019-03-22T08:09:51.141Z,56.43
2019-03-22T08:12:19.993Z,55.92
2019-03-22T08:14:47.042Z,55.63
2019-03-22T08:17:14.045Z,54.78
2019-03-22T08:19:41.190Z,53.78
2019-03-22T08:22:08.726Z,53.65
2019-03-22T08:24:35.719Z,53.96
2019-03-22T08:27:06.770Z,53.68
2019-03-22T08:29:33.926Z,53.15
2019-03-22T08:32:01.210Z,52.07
2019-03-22T08:34:28.227Z,51.88
2019-03-22T08:36:55.405Z,50.43
2019-03-22T08:39:22.418Z,51.67
2019-03-22T08:41:49.590Z,51.65
2019-03-22T08:44:17.679Z,51.95
2019-03-22T08:46:45.223Z,51.92
2019-03-22T08:49:12.538Z,53.69
2019-03-22T08:51:39.741Z,54.52
2019-03-22T08:54:06.794Z,55.18
2019-03-22T08:56:36.009Z,54.18
2019-03-22T08:59:03.230Z,54.49
2019-03-22T09:01:30.260Z,54.13
2019-03-22T09:03:57.390Z,54.16
2019-03-22T09:06:24.438Z,54.05
2019-03-22T09:08:51.520Z,52.73
2019-03-22T09:11:18.940Z,50.92
2019-03-22T09:13:46.663Z,49.65
2019-03-22T09:16:13.915Z,48.64
2019-03-22T09:18:40.922Z,48.82
2019-03-22T09:21:08.078Z,48.12
2019-03-22T09:23:35.096Z,46.78
2019-03-22T09:26:02.245Z,46.21
2019-03-22T09:28:29.265Z,46.21
2019-03-22T09:31:09.416Z,45.82
2019-03-22T09:33:25.507Z,47.09
2019-03-22T09:35:53.611Z,46.00
2019-03-22T09:38:20.649Z,44.74
2019-03-22T09:40:51.130Z,44.48
2019-03-22T09:43:18.190Z,45.29
2019-03-22T09:45:45.368Z,44.76
2019-03-22T09:48:13.450Z,44.76
2019-03-22T09:50:41.016Z,44.20
2019-03-22T09:53:08.760Z,43.44
2019-03-22T09:55:35.976Z,44.15
2019-03-22T09:58:03.026Z,43.64
2019-03-22T10:00:31.589Z,42.34
2019-03-22T10:02:58.999Z,42.68
2019-03-22T10:05:26.019Z,42.79
2019-03-22T10:07:53.918Z,42.39
2019-03-22T10:10:21.379Z,43.20
2019-03-22T10:12:48.624Z,42.20
2019-03-22T10:15:15.805Z,42.05
2019-03-22T10:17:43.048Z,42.65
2019-03-22T10:20:11.173Z,41.82
2019-03-22T10:22:38.940Z,41.50
2019-03-22T10:25:06.735Z,41.65
2019-03-22T10:27:33.911Z,42.11
2019-03-22T10:30:00.923Z,41.63
2019-03-22T10:32:29.045Z,41.04
2019-03-22T10:34:56.123Z,41.35
2019-03-22T10:37:23.160Z,41.76
2019-03-22T10:39:50.306Z,41.07
2019-03-22T10:42:17.609Z,39.64
2019-03-22T10:44:44.758Z,39.40
2019-03-22T10:47:12.648Z,39.58
2019-03-22T10:49:41.933Z,39.23
2019-03-22T10:52:08.802Z,38.09
2019-03-22T10:54:36.217Z,38.73
2019-03-22T10:57:03.377Z,38.99
2019-03-22T10:59:30.440Z,38.29
2019-03-22T11:02:03.079Z,39.00
2019-03-22T11:04:26.435Z,38.56
2019-03-22T11:06:53.950Z,37.59
2019-03-22T11:09:21.989Z,36.95
2019-03-22T11:11:49.173Z,38.21
2019-03-22T11:14:16.192Z,37.64
2019-03-22T11:16:43.259Z,37.99
2019-03-22T11:19:10.398Z,38.09
2019-03-22T11:21:37.743Z,38.55
2019-03-22T11:24:04.904Z,38.75
2019-03-22T11:26:31.972Z,38.96
2019-03-22T11:28:59.144Z,39.26
2019-03-22T11:31:28.717Z,38.62
2019-03-22T11:33:55.683Z,39.50
2019-03-22T11:36:23.316Z,38.91
2019-03-22T11:38:51.399Z,38.39
2019-03-22T11:41:18.785Z,38.15
2019-03-22T11:43:45.915Z,38.17
2019-03-22T11:46:13.163Z,38.39
2019-03-22T11:48:40.209Z,36.53
2019-03-22T11:51:09.120Z,36.54
2019-03-22T11:53:36.122Z,35.96
2019-03-22T11:56:04.015Z,35.99
2019-03-22T11:58:31.158Z,34.98
2019-03-22T12:00:59.875Z,35.86
2019-03-22T12:03:28.956Z,35.26
2019-03-22T12:05:56.183Z,33.68
2019-03-22T12:08:25.459Z,36.20
2019-03-22T12:10:52.438Z,37.09
2019-03-22T12:13:19.600Z,37.70
2019-03-22T12:15:47.809Z,36.30
2019-03-22T12:18:14.967Z,37.07
2019-03-22T12:20:42.171Z,37.67
2019-03-22T12:23:09.404Z,37.26
2019-03-22T12:25:36.679Z,36.38
2019-03-22T12:28:04.041Z,38.08
2019-03-22T12:30:31.159Z,37.43
2019-03-22T12:32:58.952Z,38.57
2019-03-22T12:35:27.393Z,38.38
2019-03-22T12:37:57.705Z,38.51
2019-03-22T12:40:25.150Z,38.39
2019-03-22T12:42:56.612Z,37.74
2019-03-22T12:45:24.921Z,37.17
2019-03-22T12:47:55.126Z,38.74
2019-03-22T12:50:22.774Z,38.99
2019-03-22T12:52:50.127Z,38.07
2019-03-22T12:55:17.553Z,39.46
2019-03-22T12:57:44.991Z,38.84
2019-03-22T13:00:14.931Z,39.34
2019-03-22T13:02:42.622Z,40.07
2019-03-22T13:05:10.110Z,39.54
2019-03-22T13:07:55.447Z,40.94
2019-03-22T13:10:40.802Z,40.45
2019-03-22T13:13:20.079Z,40.46
2019-03-22T13:15:47.912Z,40.17
2019-03-22T13:18:15.306Z,41.30
2019-03-22T13:20:43.586Z,41.79
2019-03-22T13:23:11.100Z,42.10
2019-03-22T13:25:38.458Z,41.67
2019-03-22T13:28:06.199Z,43.01
2019-03-22T13:30:36.842Z,43.68
2019-03-22T13:33:04.426Z,41.71
2019-03-22T13:35:31.518Z,41.51
2019-03-22T13:37:58.820Z,42.91
2019-03-22T13:40:26.031Z,43.31
2019-03-22T13:42:53.233Z,42.88
2019-03-22T13:45:22.288Z,43.42
2019-03-22T13:47:50.062Z,43.31
2019-03-22T13:50:17.689Z,43.57
2019-03-22T13:52:44.861Z,40.70
2019-03-22T13:55:12.441Z,38.61
2019-03-22T13:57:39.833Z,37.31
2019-03-22T14:00:08.442Z,37.26
2019-03-22T14:02:35.687Z,36.52
2019-03-22T14:05:03.459Z,38.10
2019-03-22T14:07:31.788Z,38.45
2019-03-22T14:09:59.088Z,41.29
2019-03-22T14:12:26.170Z,43.34
2019-03-22T14:14:53.850Z,43.32
2019-03-22T14:17:21.117Z,43.21
2019-03-22T14:19:48.256Z,39.63
2019-03-22T14:22:15.548Z,38.79
2019-03-22T14:24:43.759Z,38.24
2019-03-22T14:27:10.945Z,38.64
2019-03-22T14:29:41.511Z,39.39
2019-03-22T14:32:10.596Z,39.26
2019-03-22T14:34:37.957Z,43.10
2019-03-22T14:37:05.280Z,45.13
2019-03-22T14:39:32.534Z,45.06
2019-03-22T14:41:59.810Z,43.67
2019-03-22T14:44:28.285Z,40.51
2019-03-22T14:46:56.578Z,41.38
2019-03-22T14:49:23.609Z,39.71
2019-03-22T14:51:50.958Z,41.31
2019-03-22T14:54:18.653Z,41.34
2019-03-22T14:56:45.986Z,45.52
2019-03-22T14:59:13.201Z,45.87
2019-03-22T15:01:40.482Z,46.35
2019-03-22T15:04:10.260Z,45.82
2019-03-22T15:06:37.374Z,46.20
2019-03-22T15:09:06.072Z,46.73
2019-03-22T15:11:33.502Z,47.07
2019-03-22T15:14:08.712Z,44.77
2019-03-22T15:17:02.814Z,44.54
2019-03-22T15:19:55.987Z,45.76
2019-03-22T15:22:41.364Z,45.97
2019-03-22T15:25:37.817Z,47.10
2019-03-22T15:28:29.296Z,47.69
2019-03-22T15:31:14.699Z,47.77
2019-03-22T15:34:13.628Z,47.99
2019-03-22T15:37:02.959Z,47.98
2019-03-22T15:39:48.687Z,48.83
2019-03-22T15:42:15.985Z,49.12
2019-03-22T15:44:43.474Z,49.54
2019-03-22T15:47:11.383Z,50.08
2019-03-22T15:49:39.263Z,49.92
2019-03-22T15:52:06.919Z,49.26
2019-03-22T15:54:34.215Z,45.29
2019-03-22T15:57:01.478Z,44.05
2019-03-22T15:59:29.011Z,44.27
2019-03-22T16:01:58.432Z,44.42
2019-03-22T16:04:25.956Z,46.93
2019-03-22T16:06:53.067Z,47.77
2019-03-22T16:09:20.526Z,48.97
2019-03-22T16:11:47.609Z,50.43
2019-03-22T16:14:14.847Z,51.24
2019-03-22T16:16:42.570Z,52.15
2019-03-22T16:19:09.950Z,50.77
2019-03-22T16:21:37.141Z,50.88
2019-03-22T16:24:04.355Z,51.23
2019-03-22T16:26:32.302Z,51.39
2019-03-22T16:28:59.407Z,51.96
2019-03-22T16:31:26.838Z,51.96
2019-03-22T16:33:54.716Z,53.33
2019-03-22T16:36:22.192Z,53.33
2019-03-22T16:38:49.250Z,52.94
2019-03-22T16:41:16.438Z,52.44
2019-03-22T16:43:43.604Z,52.53
2019-03-22T16:46:10.675Z,52.63
2019-03-22T16:48:37.772Z,52.65
2019-03-22T16:51:04.862Z,53.12
2019-03-22T16:53:31.906Z,53.12
2019-03-22T16:55:59.097Z,53.46
2019-03-22T16:58:26.308Z,53.42
2019-03-22T17:00:53.490Z,52.52
2019-03-22T17:03:20.608Z,52.52
2019-03-22T17:05:47.880Z,52.19
2019-03-22T17:08:15.032Z,52.42
2019-03-22T17:10:42.167Z,52.32
2019-03-22T17:13:09.348Z,52.32
2019-03-22T17:15:36.390Z,52.67
2019-03-22T17:18:04.461Z,53.21
2019-03-22T17:20:31.640Z,53.27
2019-03-22T17:22:58.651Z,54.02
2019-03-22T17:25:25.842Z,54.32
2019-03-22T17:27:52.916Z,54.88
2019-03-22T17:30:20.495Z,55.17
2019-03-22T17:32:47.802Z,55.46
2019-03-22T17:35:14.871Z,55.65
2019-03-22T17:37:43.279Z,56.03
2019-03-22T17:40:10.475Z,56.32
2019-03-22T17:42:37.585Z,56.40
2019-03-22T17:45:04.969Z,56.70
2019-03-22T17:47:34.081Z,56.76
2019-03-22T17:50:01.115Z,57.21
2019-03-22T17:52:28.367Z,57.57
2019-03-22T17:54:55.484Z,57.74
2019-03-22T17:57:22.640Z,57.81
2019-03-22T17:59:49.636Z,57.80
2019-03-22T18:02:16.788Z,58.07
2019-03-22T18:04:44.099Z,58.17
2019-03-22T18:07:11.107Z,58.23
2019-03-22T18:09:38.252Z,58.46
2019-03-22T18:12:05.410Z,58.93
2019-03-22T18:14:32.664Z,58.93
2019-03-22T18:16:59.979Z,59.05
2019-03-22T18:19:27.001Z,59.24
2019-03-22T18:21:54.621Z,59.26
2019-03-22T18:24:24.791Z,59.46
2019-03-22T18:27:02.877Z,59.53
2019-03-22T18:29:29.987Z,59.81
2019-03-22T18:31:57.321Z,59.90
2019-03-22T18:34:33.757Z,60.20
2019-03-22T18:36:53.318Z,60.19
2019-03-22T18:39:20.530Z,60.33
2019-03-22T18:41:47.723Z,60.47
2019-03-22T18:44:15.756Z,60.54
2019-03-22T18:46:44.860Z,60.61
2019-03-22T18:49:12.219Z,60.90
2019-03-22T18:51:39.253Z,61.24
2019-03-22T18:54:07.325Z,61.81
2019-03-22T18:56:34.379Z,62.15
2019-03-22T18:59:03.591Z,62.32
2019-03-22T19:01:30.642Z,62.64
2019-03-22T19:03:57.731Z,62.75
2019-03-22T19:06:24.995Z,62.40
2019-03-22T19:08:54.151Z,62.48
2019-03-22T19:11:21.137Z,62.47
2019-03-22T19:13:48.526Z,62.59
2019-03-22T19:16:15.875Z,62.86
2019-03-22T19:18:42.936Z,63.21
2019-03-22T19:21:11.395Z,63.70
2019-03-22T19:23:39.718Z,64.44
2019-03-22T19:26:07.522Z,64.79
2019-03-22T19:28:36.011Z,65.00
2019-03-22T19:31:03.198Z,65.11
2019-03-22T19:33:30.441Z,65.33
2019-03-22T19:35:57.657Z,65.44
2019-03-22T19:38:24.852Z,65.53
2019-03-22T19:40:53.039Z,65.92
2019-03-22T19:43:20.129Z,65.93
2019-03-22T19:45:47.524Z,65.75
2019-03-22T19:48:15.442Z,65.80
2019-03-22T19:50:42.925Z,65.97
2019-03-22T19:53:10.329Z,66.33
2019-03-22T19:55:37.453Z,66.76
2019-03-22T19:58:04.939Z,66.89
2019-03-22T20:00:32.264Z,67.14
2019-03-22T20:02:59.426Z,67.34
2019-03-22T20:05:29.141Z,67.49
2019-03-22T20:07:56.430Z,67.28
2019-03-22T20:10:23.873Z,67.34
2019-03-22T20:12:51.639Z,67.04
2019-03-22T20:15:19.135Z,66.90
2019-03-22T20:17:46.609Z,66.93
2019-03-22T20:20:14.209Z,67.01
2019-03-22T20:22:41.318Z,66.96
2019-03-22T20:25:08.866Z,67.01
2019-03-22T20:27:36.852Z,67.05
2019-03-22T20:30:06.007Z,66.93
2019-03-22T20:32:33.171Z,67.01
2019-03-22T20:35:00.201Z,66.94
2019-03-22T20:37:28.419Z,67.25
2019-03-22T20:39:55.960Z,67.50
2019-03-22T20:42:23.005Z,67.65
2019-03-22T20:44:50.642Z,67.85
2019-03-22T20:47:17.973Z,67.98
2019-03-22T20:49:45.151Z,68.08
2019-03-22T20:52:13.807Z,68.17
2019-03-22T20:54:40.891Z,68.47
2019-03-22T20:57:08.328Z,68.40
2019-03-22T20:59:35.704Z,68.56
2019-03-22T21:02:04.090Z,68.77
2019-03-22T21:04:31.301Z,69.15
2019-03-22T21:06:58.688Z,69.33
2019-03-22T21:09:25.994Z,69.50
2019-03-22T21:11:53.292Z,69.73
2019-03-22T21:14:26.512Z,70.26
2019-03-22T21:16:53.797Z,70.63
2019-03-22T21:19:20.897Z,70.63
2019-03-22T21:21:48.153Z,70.80
2019-03-22T21:24:15.433Z,71.06
2019-03-22T21:26:42.773Z,71.58
2019-03-22T21:29:10.040Z,72.19
2019-03-22T21:31:37.199Z,72.36
2019-03-22T21:34:04.306Z,72.71
2019-03-22T21:36:32.550Z,73.16
2019-03-22T21:38:59.592Z,73.41
2019-03-22T21:41:26.716Z,73.24
2019-03-22T21:43:53.791Z,73.37
2019-03-22T21:46:20.929Z,73.48
2019-03-22T21:48:50.331Z,73.53
2019-03-22T21:51:17.522Z,73.90
2019-03-22T21:53:48.856Z,74.12
2019-03-22T21:56:16.234Z,74.37
2019-03-22T21:58:43.581Z,74.60
2019-03-22T22:01:14.882Z,74.70
2019-03-22T22:03:41.953Z,75.01
2019-03-22T22:06:09.261Z,74.97
2019-03-22T22:08:36.299Z,75.14
2019-03-22T22:11:04.411Z,75.20
2019-03-22T22:13:32.124Z,75.20
2019-03-22T22:15:59.179Z,75.47
2019-03-22T22:18:26.336Z,75.74
2019-03-22T22:20:53.419Z,75.98
2019-03-22T22:23:20.582Z,76.67
2019-03-22T22:25:47.898Z,76.86
2019-03-22T22:28:16.586Z,77.17
2019-03-22T22:30:43.587Z,77.31
2019-03-22T22:33:10.588Z,77.82
2019-03-22T22:35:37.650Z,78.53
2019-03-22T22:38:04.852Z,78.84
2019-03-22T22:40:32.481Z,78.90
2019-03-22T22:43:00.313Z,78.89
2019-03-22T22:45:27.388Z,78.27
2019-03-22T22:47:57.658Z,77.39
2019-03-22T22:50:25.227Z,76.79
2019-03-22T22:52:52.411Z,76.78
2019-03-22T22:55:19.516Z,76.46
2019-03-22T22:57:46.615Z,76.66
2019-03-22T23:00:14.074Z,76.90
2019-03-22T23:02:41.305Z,76.85
2019-03-22T23:05:08.867Z,76.57
2019-03-22T23:07:36.097Z,76.16
2019-03-22T23:10:04.207Z,76.13
2019-03-22T23:12:31.307Z,76.41
2019-03-22T23:14:59.914Z,77.03
2019-03-22T23:17:27.119Z,77.24
2019-03-22T23:19:54.293Z,77.07
2019-03-22T23:22:21.315Z,76.79
2019-03-22T23:24:48.416Z,76.06
2019-03-22T23:27:15.455Z,76.70
2019-03-22T23:29:42.522Z,76.82
2019-03-22T23:32:09.588Z,76.96
2019-03-22T23:34:36.895Z,76.59
2019-03-22T23:37:04.212Z,75.23
2019-03-22T23:39:31.250Z,74.30
2019-03-22T23:41:58.709Z,74.29
2019-03-22T23:44:25.770Z,74.46
2019-03-22T23:46:52.817Z,74.35
2019-03-22T23:49:19.874Z,74.59
2019-03-22T23:51:46.911Z,73.84
2019-03-22T23:54:13.914Z,72.94
2019-03-22T23:56:41.017Z,71.96
2019-03-22T23:59:08.071Z,72.08
